Norton, VA (24273)

7:44 AM EDT on July 23, 2014 (GMT -0400)
Lonesome Pine (KLNP) Elev 2684 ft | 36.99 °N, 82.53 °W | Change Station

Current weather conditions updated 9 minutes ago

Partly Cloudy
Partly Cloudy
68 °F
Feels Like 68 °F
N
4
Wind Variable Wind from SSW

Today is forecast to be nearly the same temperature as yesterday. Thunderstorms.

Today
High -- | Low -- °F
--% Chance of Precip.
Yesterday
High -- | Low -- °F
Precip. -- in
6:28 AM 8:44 PM
Waning Crescent, 11% visible
Pressure 30.21 in
Visibility 10.0 miles
Clouds Mostly Cloudy 8000 ft
Dew Point 66 °F
Humidity 94%
Rainfall 0.00 in
Snow Depth Not available.
UV 0 out of 12
Pollen 3.90 out of 12
Air Quality Not available.
Flu Activity Not available.
METAR KLNP 231135Z AUTO 20003KT 10SM BKN080 20/19 A3021 RMK AO2

More Conditions Fewer Conditions

Pressure 30.21 in
Visibility 10.0 miles
Clouds Mostly Cloudy 8000 ft
Dew Point 66 °F
Humidity 94%
Rainfall 0.00 in
Snow Depth Not available.
UV 0 out of 12
Pollen 3.90 out of 12
Air Quality Not available.
Flu Activity Not available.
METAR KLNP 231135Z AUTO 20003KT 10SM BKN080 20/19 A3021 RMK AO2

More Conditions Fewer Conditions

10-Day Weather Forecast

Almanac

Astronomy

Jul. 23, 2014 Rise Set
Actual Time 6:28 AM EDT 8:44 PM EDT
Civil Twilight 5:59 AM EDT 9:14 PM EDT
Nautical Twilight 5:23 AM EDT 9:50 PM EDT
Astronomical Twilight 4:43 AM EDT 10:29 PM EDT
Moon 3:46 AM EDT 6:13 PM EDT
Length of Visible Light 15h 14m
Length of Day
14h 16m
Tomorrow will be 1m 31s shorter.
Waning Crescent, 11% of the Moon is Illuminated
Today
Waning Crescent
Jul 26
New
Aug 3
First Quarter
Aug 10
Full
Aug 17
Last Quarter

Today's Extremes

State Highs State Lows

Community

WunderPhotos

Upload Photos

1,736,561 photos uploaded!

Nearby

Snow Depth

Station Depth Elevation
No new snow has been reported.

Earthquake Activity

City Distance Mag. Time & Date
No recent earthquake activity has been reported nearby.
Minimum magnitude displayed is 2.5.

Coastal Water Temperatures

Place Temperature
No Stations Reporting

Nearby Weather Stations

Station Location Temp. Dew Point Humidity Wind Precip. Elev Updated Type
RAWS PRAWS 12 KY, Jenkins, KY 70 °F 67 °F 89% North  at  0 mph 0.00 in / hr 1974 ft 6:47 AM EDT MADIS
Southwest Virginia, 4 miles SSE, Nora, VA 69.7 °F 66 °F 88% SW  at  1.0 mph 0.00 in / hr 2650 ft 4:50 AM EDT Normal
Ramey Flats, Clintwood, VA 64.6 °F 65 °F 100% SSE  at  0.0 mph 0.00 in / hr 1795 ft 7:42 AM EDT Normal
W4CSN, Nottingham, Gate City, VA 68.0 °F 67 °F 97% North  at  0.0 mph 0.00 in / hr 1309 ft 7:44 AM EDT Rapid Fire

Show More Stations Show Fewer Stations